Time;durP1;ratioP1;P1;durP2;ratioP2;P2;SDS_P1;SDS_P2;PMS_P1;PMS_P2;Temp;Humidity;BMP_temperature;BMP_pressure;BME280_temperature;BME280_humidity;BME280_pressure;Samples;Min_cycle;Max_cycle;Signal;HPM_P1;HPM_P2
2021/12/16 00:09:14;;;;;;;;;;;7.90;99.90;;;;;;5033865;28;19974;-62
2021/12/16 00:33:34;;;;;;;;;;;8.00;99.90;;;;;;5051541;28;19956;-62
2021/12/16 00:36:00;;;;;;;;;;;8.10;99.90;;;;;;5051203;28;19921;-62
2021/12/16 00:38:25;;;;;;;;;;;8.10;99.90;;;;;;5033510;28;19920;-62
2021/12/16 00:40:51;;;;;;;;;;;8.10;99.90;;;;;;5051362;28;19924;-62
2021/12/16 00:43:28;;;;;;;;;;;8.10;99.90;;;;;;5051269;28;19924;-62
2021/12/16 00:54:32;;;;;;;;;;;8.10;99.90;;;;;;5051029;28;20322;-62
2021/12/16 00:56:56;;;;;;;;;;;8.00;99.90;;;;;;5046771;28;19986;-62
2021/12/16 00:59:24;;;;;;;;;;;8.00;99.90;;;;;;5050769;28;19940;-62
2021/12/16 01:01:59;;;;;;;;;;;8.00;99.90;;;;;;5050830;28;19916;-62
2021/12/16 01:33:40;;;;;;;;;;;7.90;99.90;;;;;;5050732;28;19931;-62
2021/12/16 01:40:08;;;;;;;;;;;8.00;99.90;;;;;;5050199;28;19917;-61
2021/12/16 01:48:07;;;;;;;;;;;7.80;99.90;;;;;;5050537;28;19962;-61
2021/12/16 01:50:40;;;;;;;;;;;7.80;99.90;;;;;;5032680;28;19917;-61
2021/12/16 01:53:51;;;;;;;;;;;7.70;99.90;;;;;;5049801;28;19924;-62
2021/12/16 01:56:07;;;;;;;;;;;7.70;99.90;;;;;;5029780;28;19931;-62
2021/12/16 01:58:34;;;;;;;;;;;7.70;99.90;;;;;;5032371;28;19917;-61
2021/12/16 02:01:19;;;;;;;;;;;7.80;99.90;;;;;;5049853;28;20338;-61
2021/12/16 02:03:48;;;;;;;;;;;7.80;99.90;;;;;;5049436;28;20353;-61
2021/12/16 02:08:46;;;;;;;;;;;7.90;99.90;;;;;;5050253;28;19916;-61
2021/12/16 02:12:10;;;;;;;;;;;7.90;99.90;;;;;;5050001;28;20315;-61
2021/12/16 02:33:16;;;;;;;;;;;8.10;99.90;;;;;;5053976;28;20632;-61
2021/12/16 02:35:59;;;;;;;;;;;8.10;99.90;;;;;;5053811;28;20003;-61
2021/12/16 02:38:28;;;;;;;;;;;8.10;99.90;;;;;;5053618;28;20275;-61
2021/12/16 02:40:54;;;;;;;;;;;8.10;99.90;;;;;;5053739;28;19917;-62
2021/12/16 02:43:56;;;;;;;;;;;8.10;99.90;;;;;;5053131;28;19962;-62
2021/12/16 02:48:42;;;;;;;;;;;8.20;99.90;;;;;;5053494;28;19940;-62
2021/12/16 02:51:09;;;;;;;;;;;8.10;99.90;;;;;;5053325;28;19962;-62
2021/12/16 02:53:36;;;;;;;;;;;8.10;99.90;;;;;;5035309;28;20011;-61
2021/12/16 02:56:03;;;;;;;;;;;8.20;99.90;;;;;;5053315;28;19920;-62
2021/12/16 02:58:28;;;;;;;;;;;8.20;99.90;;;;;;5053358;28;20462;-61
2021/12/16 03:00:57;;;;;;;;;;;8.20;99.90;;;;;;5053136;28;19917;-62
2021/12/16 03:03:23;;;;;;;;;;;8.20;99.90;;;;;;5035382;28;20580;-62
2021/12/16 03:05:49;;;;;;;;;;;8.10;99.90;;;;;;5053167;28;19921;-61
2021/12/16 03:08:14;;;;;;;;;;;8.10;99.90;;;;;;5052877;28;20614;-61
2021/12/16 03:13:30;;;;;;;;;;;8.10;99.90;;;;;;5053245;28;19940;-61
2021/12/16 03:16:12;;;;;;;;;;;8.20;99.90;;;;;;5052994;28;19928;-62
2021/12/16 03:21:16;;;;;;;;;;;8.20;99.90;;;;;;5052939;28;20383;-62
2021/12/16 03:23:58;;;;;;;;;;;8.20;99.90;;;;;;5034697;28;19924;-62
2021/12/16 03:29:36;;;;;;;;;;;8.10;99.90;;;;;;5051820;28;19982;-61
2021/12/16 03:32:25;;;;;;;;;;;8.10;99.90;;;;;;5051673;28;19955;-62
2021/12/16 03:35:02;;;;;;;;;;;8.20;99.90;;;;;;5052659;28;20446;-61
2021/12/16 03:37:28;;;;;;;;;;;8.20;99.90;;;;;;5034566;28;20008;-62
2021/12/16 03:40:03;;;;;;;;;;;8.20;99.90;;;;;;5052608;28;19917;-62
2021/12/16 03:42:30;;;;;;;;;;;8.10;99.90;;;;;;5052542;28;19926;-62
2021/12/16 03:45:00;;;;;;;;;;;8.10;99.90;;;;;;5034580;28;20047;-62
2021/12/16 03:47:30;;;;;;;;;;;8.10;99.90;;;;;;5052821;28;20504;-62
2021/12/16 03:49:56;;;;;;;;;;;8.10;99.90;;;;;;5052062;28;19920;-62
2021/12/16 03:52:22;;;;;;;;;;;8.10;99.90;;;;;;5052242;28;19971;-61
2021/12/16 03:54:50;;;;;;;;;;;8.10;99.90;;;;;;5034057;28;19927;-61
2021/12/16 03:57:16;;;;;;;;;;;8.10;99.90;;;;;;5052231;28;20399;-61
2021/12/16 03:59:42;;;;;;;;;;;8.10;99.90;;;;;;5052043;28;19967;-61
2021/12/16 04:02:09;;;;;;;;;;;8.20;99.90;;;;;;5051873;28;19920;-62
2021/12/16 04:04:35;;;;;;;;;;;8.20;99.90;;;;;;5051681;28;19921;-62
2021/12/16 04:07:01;;;;;;;;;;;8.20;99.90;;;;;;5052224;28;19939;-61
2021/12/16 04:09:27;;;;;;;;;;;8.20;99.90;;;;;;5052092;28;19916;-62
2021/12/16 04:12:07;;;;;;;;;;;8.20;99.90;;;;;;5034088;28;19916;-62
2021/12/16 04:14:33;;;;;;;;;;;8.20;99.90;;;;;;5034073;28;19920;-62
2021/12/16 04:17:00;;;;;;;;;;;8.30;99.90;;;;;;5051684;28;20307;-61
2021/12/16 04:19:28;;;;;;;;;;;8.30;99.90;;;;;;5034254;28;19917;-62
2021/12/16 04:21:55;;;;;;;;;;;8.30;99.90;;;;;;5051534;28;19917;-61
2021/12/16 04:24:21;;;;;;;;;;;8.30;99.90;;;;;;5051607;28;19923;-61
2021/12/16 04:26:48;;;;;;;;;;;8.30;99.90;;;;;;5051720;28;20012;-61
2021/12/16 04:29:14;;;;;;;;;;;8.30;99.90;;;;;;5051609;28;19916;-62
2021/12/16 04:31:40;;;;;;;;;;;8.30;99.90;;;;;;5051273;28;19928;-61
2021/12/16 04:34:06;;;;;;;;;;;8.30;99.90;;;;;;5051353;28;19924;-61
2021/12/16 04:36:32;;;;;;;;;;;8.40;99.90;;;;;;5051446;28;20010;-61
2021/12/16 04:38:57;;;;;;;;;;;8.30;99.90;;;;;;5050697;28;20000;-61
2021/12/16 04:41:23;;;;;;;;;;;8.40;99.90;;;;;;5050808;28;20298;-61
2021/12/16 04:43:51;;;;;;;;;;;8.40;99.90;;;;;;5050824;28;19920;-62
2021/12/16 04:46:19;;;;;;;;;;;8.40;99.90;;;;;;5051084;28;20031;-62
2021/12/16 04:48:46;;;;;;;;;;;8.40;99.90;;;;;;5051283;28;20442;-62
2021/12/16 04:51:12;;;;;;;;;;;8.40;99.90;;;;;;5051217;28;19916;-62
2021/12/16 04:53:38;;;;;;;;;;;8.40;99.90;;;;;;5050992;28;20268;-62
2021/12/16 04:56:04;;;;;;;;;;;8.50;99.90;;;;;;5050985;28;19974;-62
2021/12/16 04:58:31;;;;;;;;;;;8.40;99.90;;;;;;5050886;28;19916;-62
2021/12/16 05:00:56;;;;;;;;;;;8.40;99.90;;;;;;5050974;28;20023;-62
2021/12/16 05:03:23;;;;;;;;;;;8.40;99.90;;;;;;5050669;28;19916;-62
2021/12/16 05:05:49;;;;;;;;;;;8.50;99.90;;;;;;5033003;28;19924;-62
2021/12/16 05:08:15;;;;;;;;;;;8.40;99.90;;;;;;5033105;28;20268;-62
2021/12/16 05:10:40;;;;;;;;;;;8.50;99.90;;;;;;5050654;28;19925;-62
2021/12/16 05:13:07;;;;;;;;;;;8.50;99.90;;;;;;5050382;28;20329;-62
2021/12/16 05:15:35;;;;;;;;;;;8.40;99.90;;;;;;5050925;28;20421;-61
2021/12/16 05:18:03;;;;;;;;;;;8.50;99.90;;;;;;5050993;28;19916;-61
2021/12/16 05:20:32;;;;;;;;;;;8.40;99.90;;;;;;5032583;28;19927;-61
2021/12/16 05:25:58;;;;;;;;;;;8.40;99.90;;;;;;5050492;28;20337;-61
2021/12/16 05:28:24;;;;;;;;;;;8.40;99.90;;;;;;5050636;28;19916;-61
2021/12/16 05:30:50;;;;;;;;;;;8.40;99.90;;;;;;5050310;28;19999;-61
2021/12/16 05:33:17;;;;;;;;;;;8.40;99.90;;;;;;5050340;28;19924;-61
2021/12/16 05:35:43;;;;;;;;;;;8.40;99.90;;;;;;5032692;28;19920;-62
2021/12/16 05:38:08;;;;;;;;;;;8.40;99.90;;;;;;5050131;28;20369;-62
2021/12/16 05:40:34;;;;;;;;;;;8.40;99.90;;;;;;5050163;28;19935;-61
2021/12/16 05:43:04;;;;;;;;;;;8.40;99.90;;;;;;5050176;28;19917;-61
2021/12/16 05:45:30;;;;;;;;;;;8.50;99.90;;;;;;5050476;28;19916;-62
2021/12/16 05:47:56;;;;;;;;;;;8.40;99.90;;;;;;5050236;28;20318;-61
2021/12/16 05:50:23;;;;;;;;;;;8.50;99.90;;;;;;5050021;28;19924;-62
2021/12/16 05:52:48;;;;;;;;;;;8.40;99.90;;;;;;5049631;28;19923;-62
2021/12/16 05:55:14;;;;;;;;;;;8.40;99.90;;;;;;5050298;28;19921;-61
2021/12/16 05:57:40;;;;;;;;;;;8.50;99.90;;;;;;5050575;28;19971;-61
2021/12/16 06:00:08;;;;;;;;;;;8.50;99.90;;;;;;5050065;28;19959;-61
2021/12/16 06:02:33;;;;;;;;;;;8.50;99.90;;;;;;5049828;28;19921;-62
2021/12/16 06:04:59;;;;;;;;;;;8.50;99.90;;;;;;5049966;28;19965;-62
2021/12/16 06:07:24;;;;;;;;;;;8.50;99.90;;;;;;5049928;28;19960;-61
2021/12/16 06:09:50;;;;;;;;;;;8.50;99.90;;;;;;5049940;28;19986;-61
2021/12/16 06:12:16;;;;;;;;;;;8.50;99.90;;;;;;5049928;28;19917;-61
2021/12/16 06:28:08;;;;;;;;;;;8.50;99.90;;;;;;5028911;28;19998;-62
2021/12/16 06:30:35;;;;;;;;;;;8.50;99.90;;;;;;5046894;28;20007;-62
2021/12/16 06:33:01;;;;;;;;;;;8.50;99.90;;;;;;5046181;28;19921;-62
2021/12/16 06:35:27;;;;;;;;;;;8.50;99.90;;;;;;5028708;28;19921;-62
2021/12/16 06:37:53;;;;;;;;;;;8.50;99.90;;;;;;5029166;28;19917;-62
2021/12/16 06:40:18;;;;;;;;;;;8.50;99.90;;;;;;5046263;28;19925;-62
2021/12/16 06:42:46;;;;;;;;;;;8.50;99.90;;;;;;5028404;28;20440;-62
2021/12/16 06:45:17;;;;;;;;;;;8.50;99.90;;;;;;5028676;28;20379;-62
2021/12/16 06:47:48;;;;;;;;;;;8.50;99.90;;;;;;5028730;28;19921;-62
2021/12/16 06:50:24;;;;;;;;;;;8.50;99.90;;;;;;5046500;28;19920;-62
2021/12/16 06:52:51;;;;;;;;;;;8.50;99.90;;;;;;5046189;28;20275;-62
2021/12/16 06:57:51;;;;;;;;;;;8.50;99.90;;;;;;5046080;28;19920;-62
2021/12/16 07:00:27;;;;;;;;;;;8.50;99.90;;;;;;5046189;28;19975;-62
2021/12/16 07:05:23;;;;;;;;;;;8.50;99.90;;;;;;5049725;28;19921;-63
2021/12/16 07:07:49;;;;;;;;;;;8.50;99.90;;;;;;5049455;28;20447;-62
2021/12/16 07:10:15;;;;;;;;;;;8.60;99.90;;;;;;5049958;28;19928;-62
2021/12/16 07:12:47;;;;;;;;;;;8.50;99.90;;;;;;5050373;28;19956;-61
2021/12/16 07:15:14;;;;;;;;;;;8.50;99.90;;;;;;5060874;22;19921;-63
2021/12/16 07:17:40;;;;;;;;;;;8.50;99.90;;;;;;5032850;28;20444;-63
2021/12/16 07:20:07;;;;;;;;;;;8.50;99.90;;;;;;5031527;28;20397;-62
2021/12/16 07:22:34;;;;;;;;;;;8.40;99.90;;;;;;5032602;28;19921;-62
2021/12/16 07:25:00;;;;;;;;;;;8.30;99.90;;;;;;5032996;28;19917;-62
2021/12/16 07:27:25;;;;;;;;;;;8.30;99.90;;;;;;5032998;28;19921;-64
2021/12/16 07:29:51;;;;;;;;;;;8.20;99.90;;;;;;5032950;28;20381;-62
2021/12/16 07:32:16;;;;;;;;;;;8.20;99.90;;;;;;5043599;28;19951;-63
2021/12/16 07:34:42;;;;;;;;;;;8.20;99.90;;;;;;5052517;28;20446;-63
2021/12/16 07:37:08;;;;;;;;;;;8.20;99.90;;;;;;5052639;28;19924;-62
2021/12/16 07:39:42;;;;;;;;;;;8.20;99.90;;;;;;5051277;28;20358;-63
2021/12/16 07:42:10;;;;;;;;;;;8.20;99.90;;;;;;5052443;28;19916;-62
2021/12/16 07:44:35;;;;;;;;;;;8.20;99.90;;;;;;5052416;28;19916;-63
2021/12/16 07:47:03;;;;;;;;;;;8.10;99.90;;;;;;5052626;28;19928;-63
2021/12/16 07:49:30;;;;;;;;;;;8.10;99.90;;;;;;5052108;28;19917;-62
2021/12/16 07:51:56;;;;;;;;;;;8.10;99.90;;;;;;5052051;28;19927;-63
2021/12/16 07:54:22;;;;;;;;;;;8.00;99.90;;;;;;5051201;28;20004;-63
2021/12/16 07:56:49;;;;;;;;;;;8.00;99.90;;;;;;5052776;28;20011;-63
2021/12/16 07:59:14;;;;;;;;;;;7.90;99.90;;;;;;5052306;28;19916;-64
2021/12/16 08:01:41;;;;;;;;;;;7.80;99.90;;;;;;5052046;28;19917;-63
2021/12/16 08:04:07;;;;;;;;;;;7.70;99.90;;;;;;5051648;28;19916;-64
2021/12/16 08:06:32;;;;;;;;;;;7.70;99.90;;;;;;5051953;28;19917;-63
2021/12/16 08:09:00;;;;;;;;;;;7.70;99.90;;;;;;5052297;28;19963;-63
2021/12/16 08:11:27;;;;;;;;;;;7.60;99.90;;;;;;5052027;28;19924;-63
2021/12/16 08:13:53;;;;;;;;;;;7.60;99.90;;;;;;5051713;28;19916;-63
2021/12/16 08:16:22;;;;;;;;;;;7.60;99.90;;;;;;5051454;28;20304;-62
2021/12/16 08:18:51;;;;;;;;;;;7.50;99.90;;;;;;5051768;28;20294;-63
2021/12/16 08:21:16;;;;;;;;;;;7.50;99.90;;;;;;5051861;28;20306;-63
2021/12/16 08:23:42;;;;;;;;;;;7.50;99.90;;;;;;5051579;28;19924;-62
2021/12/16 08:26:08;;;;;;;;;;;7.60;99.90;;;;;;5051458;28;19916;-63
2021/12/16 08:28:34;;;;;;;;;;;7.70;99.90;;;;;;5051741;28;19928;-64
2021/12/16 08:31:00;;;;;;;;;;;7.70;99.90;;;;;;5051234;28;19917;-63
2021/12/16 08:33:26;;;;;;;;;;;7.80;99.90;;;;;;5051543;28;19920;-63
2021/12/16 08:35:52;;;;;;;;;;;7.90;99.90;;;;;;5051447;28;19920;-64
2021/12/16 08:38:20;;;;;;;;;;;8.00;99.90;;;;;;5051517;28;19928;-62
2021/12/16 08:40:47;;;;;;;;;;;8.00;99.90;;;;;;5051456;28;19955;-64
2021/12/16 08:43:13;;;;;;;;;;;8.10;99.90;;;;;;5051194;28;19920;-63
2021/12/16 08:45:39;;;;;;;;;;;8.10;99.90;;;;;;5050982;28;20275;-63
2021/12/16 08:48:06;;;;;;;;;;;8.10;99.90;;;;;;5051321;28;19916;-63
2021/12/16 08:50:33;;;;;;;;;;;8.20;99.90;;;;;;5051336;28;19956;-63
2021/12/16 08:53:00;;;;;;;;;;;8.10;99.90;;;;;;5045577;28;20000;-63
2021/12/16 08:55:25;;;;;;;;;;;8.10;99.90;;;;;;5016765;28;20375;-63
2021/12/16 08:57:53;;;;;;;;;;;8.20;99.90;;;;;;5012802;28;19925;-63
2021/12/16 09:00:22;;;;;;;;;;;8.20;99.90;;;;;;5023251;28;19944;-63
2021/12/16 09:02:47;;;;;;;;;;;8.30;99.90;;;;;;5029287;28;20012;-63
2021/12/16 09:05:13;;;;;;;;;;;8.30;99.90;;;;;;5021372;28;20004;-63
2021/12/16 09:07:40;;;;;;;;;;;8.40;99.90;;;;;;5020599;28;19995;-63
2021/12/16 09:10:07;;;;;;;;;;;8.40;99.90;;;;;;5029081;28;20356;-64
2021/12/16 09:14:58;;;;;;;;;;;8.50;99.90;;;;;;5024023;28;19928;-63
2021/12/16 09:17:24;;;;;;;;;;;8.50;99.90;;;;;;5031232;28;19921;-63
2021/12/16 09:19:51;;;;;;;;;;;8.60;99.90;;;;;;5030844;28;19924;-63
2021/12/16 09:22:17;;;;;;;;;;;8.60;99.90;;;;;;5030405;28;19923;-63
2021/12/16 09:24:47;;;;;;;;;;;8.60;99.90;;;;;;5030766;28;19917;-63
2021/12/16 09:27:12;;;;;;;;;;;8.80;99.90;;;;;;5029768;28;19939;-64
2021/12/16 09:29:38;;;;;;;;;;;8.90;99.90;;;;;;5030590;28;20654;-63
2021/12/16 09:32:05;;;;;;;;;;;8.90;99.90;;;;;;5033388;28;20477;-63
2021/12/16 09:34:31;;;;;;;;;;;9.00;99.90;;;;;;5050209;28;20341;-63
2021/12/16 09:36:57;;;;;;;;;;;9.00;99.90;;;;;;5050422;28;19927;-63
2021/12/16 09:39:25;;;;;;;;;;;9.00;99.90;;;;;;5050315;28;19921;-64
2021/12/16 09:41:51;;;;;;;;;;;9.00;99.90;;;;;;5048649;28;20031;-64
2021/12/16 09:44:18;;;;;;;;;;;9.00;99.90;;;;;;5050419;28;20363;-63
2021/12/16 09:46:45;;;;;;;;;;;8.90;99.90;;;;;;5050300;28;20003;-63
2021/12/16 09:49:11;;;;;;;;;;;8.90;99.90;;;;;;5050298;28;20524;-63
2021/12/16 09:51:40;;;;;;;;;;;8.80;99.90;;;;;;5050488;28;19916;-63
2021/12/16 09:54:07;;;;;;;;;;;8.80;99.90;;;;;;5048731;28;20550;-63
2021/12/16 09:56:34;;;;;;;;;;;8.80;99.90;;;;;;5049867;28;19921;-64
2021/12/16 09:59:00;;;;;;;;;;;8.80;99.90;;;;;;5050294;28;19959;-64
2021/12/16 10:01:25;;;;;;;;;;;8.80;99.90;;;;;;5050538;28;19917;-64
2021/12/16 10:03:52;;;;;;;;;;;8.80;99.90;;;;;;5049989;28;19955;-63
2021/12/16 10:06:18;;;;;;;;;;;8.80;99.90;;;;;;5049906;28;19916;-63
2021/12/16 10:08:44;;;;;;;;;;;8.90;99.90;;;;;;5050072;28;19978;-63
2021/12/16 10:11:10;;;;;;;;;;;8.90;99.90;;;;;;5049944;28;19917;-65
2021/12/16 10:13:44;;;;;;;;;;;8.90;99.90;;;;;;5049910;28;19994;-63
2021/12/16 10:18:35;;;;;;;;;;;8.80;99.90;;;;;;5050052;28;20393;-63
2021/12/16 10:21:03;;;;;;;;;;;8.70;99.90;;;;;;5050075;28;19923;-63
2021/12/16 10:23:30;;;;;;;;;;;8.70;99.90;;;;;;5047397;28;19917;-64
2021/12/16 10:25:57;;;;;;;;;;;8.70;99.90;;;;;;5035126;28;20461;-63
2021/12/16 10:28:25;;;;;;;;;;;8.70;99.90;;;;;;5047844;28;20262;-63
2021/12/16 10:30:50;;;;;;;;;;;8.70;99.90;;;;;;5030231;28;19949;-63
2021/12/16 10:33:19;;;;;;;;;;;8.70;99.90;;;;;;5049660;28;19963;-64
2021/12/16 10:35:47;;;;;;;;;;;8.80;99.90;;;;;;5049214;28;19921;-64
2021/12/16 10:38:14;;;;;;;;;;;8.80;99.90;;;;;;5049452;28;19921;-63
2021/12/16 10:40:43;;;;;;;;;;;8.80;99.90;;;;;;5053937;28;19917;-64
2021/12/16 10:43:29;;;;;;;;;;;8.90;99.90;;;;;;5053447;28;19996;-64
2021/12/16 10:45:57;;;;;;;;;;;9.00;99.90;;;;;;5053028;28;19923;-64
2021/12/16 10:48:33;;;;;;;;;;;8.90;99.90;;;;;;5053513;28;19917;-63
2021/12/16 10:51:04;;;;;;;;;;;8.90;99.90;;;;;;5053686;28;19920;-63
2021/12/16 10:53:42;;;;;;;;;;;9.00;99.90;;;;;;5053308;28;19963;-63
2021/12/16 10:56:07;;;;;;;;;;;9.00;99.90;;;;;;5053436;28;19923;-63
2021/12/16 10:58:53;;;;;;;;;;;9.00;99.90;;;;;;5053435;28;19925;-63
2021/12/16 11:01:32;;;;;;;;;;;9.00;99.90;;;;;;5053214;28;20389;-64
2021/12/16 11:03:58;;;;;;;;;;;9.00;99.90;;;;;;5053107;28;20386;-62
2021/12/16 11:06:31;;;;;;;;;;;9.00;99.90;;;;;;5053250;28;19916;-63
2021/12/16 11:09:15;;;;;;;;;;;9.00;99.90;;;;;;5053193;28;19970;-63
2021/12/16 11:11:40;;;;;;;;;;;9.00;99.90;;;;;;5052786;28;20323;-63
2021/12/16 11:14:06;;;;;;;;;;;9.00;99.90;;;;;;5053071;28;20492;-63
2021/12/16 11:16:34;;;;;;;;;;;9.00;99.90;;;;;;5052937;28;19952;-63
2021/12/16 11:18:59;;;;;;;;;;;9.00;99.90;;;;;;5053101;28;19923;-64
2021/12/16 11:21:32;;;;;;;;;;;9.10;99.90;;;;;;5052981;28;19916;-63
2021/12/16 11:23:57;;;;;;;;;;;9.10;99.90;;;;;;5051571;28;19917;-63
2021/12/16 11:26:28;;;;;;;;;;;9.10;99.90;;;;;;5051716;28;20038;-64
2021/12/16 11:28:54;;;;;;;;;;;9.10;99.90;;;;;;5051437;28;19916;-63
2021/12/16 11:31:23;;;;;;;;;;;9.20;99.90;;;;;;5051301;28;19923;-64
2021/12/16 11:33:51;;;;;;;;;;;9.10;99.90;;;;;;5051444;28;19929;-63
2021/12/16 11:36:21;;;;;;;;;;;9.20;99.90;;;;;;5052467;28;19978;-63
2021/12/16 11:38:52;;;;;;;;;;;9.10;99.90;;;;;;5052803;28;19921;-63
2021/12/16 11:41:20;;;;;;;;;;;9.20;99.90;;;;;;5044840;28;20000;-64
2021/12/16 11:43:49;;;;;;;;;;;9.20;99.90;;;;;;5018900;28;19963;-63
2021/12/16 11:46:23;;;;;;;;;;;9.20;99.90;;;;;;5012783;28;19940;-63
2021/12/16 11:48:50;;;;;;;;;;;9.20;99.90;;;;;;5016518;28;20547;-63
2021/12/16 11:51:22;;;;;;;;;;;9.20;99.90;;;;;;5031613;28;19927;-63
2021/12/16 11:53:49;;;;;;;;;;;9.20;99.90;;;;;;5011445;28;19918;-63
2021/12/16 11:56:16;;;;;;;;;;;9.20;99.90;;;;;;5011292;28;19967;-63
2021/12/16 11:58:42;;;;;;;;;;;9.20;99.90;;;;;;5011329;28;19978;-63
2021/12/16 12:01:19;;;;;;;;;;;9.20;99.90;;;;;;5011497;28;19965;-63
2021/12/16 12:03:45;;;;;;;;;;;9.20;99.90;;;;;;5012026;28;19956;-64
2021/12/16 12:06:21;;;;;;;;;;;9.20;99.90;;;;;;5012333;28;19921;-63
2021/12/16 12:08:47;;;;;;;;;;;9.20;99.90;;;;;;5012658;28;19924;-63
2021/12/16 12:11:16;;;;;;;;;;;9.30;99.90;;;;;;5014629;28;19917;-63
2021/12/16 12:13:44;;;;;;;;;;;9.30;99.90;;;;;;5020236;28;19921;-63
2021/12/16 12:16:11;;;;;;;;;;;9.30;99.90;;;;;;5021077;28;19925;-63
2021/12/16 12:18:50;;;;;;;;;;;9.40;99.90;;;;;;5020010;28;20237;-63
2021/12/16 12:21:30;;;;;;;;;;;9.40;99.90;;;;;;5018761;28;19947;-63
2021/12/16 12:23:57;;;;;;;;;;;9.40;99.90;;;;;;5021000;28;19963;-63
2021/12/16 12:26:24;;;;;;;;;;;9.40;99.90;;;;;;5017314;28;19921;-63
2021/12/16 12:28:51;;;;;;;;;;;9.40;99.90;;;;;;5025731;28;19929;-63
2021/12/16 12:31:18;;;;;;;;;;;9.40;99.90;;;;;;5016105;28;19917;-64
2021/12/16 12:33:44;;;;;;;;;;;9.40;99.90;;;;;;5021610;28;20395;-63
2021/12/16 12:36:11;;;;;;;;;;;9.40;99.90;;;;;;5020171;28;19960;-64
2021/12/16 12:38:36;;;;;;;;;;;9.40;99.90;;;;;;5019545;28;19921;-63
2021/12/16 12:41:03;;;;;;;;;;;9.40;99.90;;;;;;5020847;28;19917;-63
2021/12/16 12:43:29;;;;;;;;;;;9.30;99.90;;;;;;5020452;28;19918;-63
2021/12/16 12:45:55;;;;;;;;;;;9.40;99.90;;;;;;5019507;28;19983;-64
2021/12/16 12:48:21;;;;;;;;;;;9.40;99.90;;;;;;5021222;28;19980;-63
2021/12/16 12:50:48;;;;;;;;;;;9.40;99.90;;;;;;5026232;28;19924;-63
2021/12/16 12:53:17;;;;;;;;;;;9.40;99.90;;;;;;5031266;28;19917;-64
2021/12/16 12:55:43;;;;;;;;;;;9.40;99.90;;;;;;5029273;28;19917;-63
2021/12/16 12:58:19;;;;;;;;;;;9.50;99.90;;;;;;5029937;28;19928;-63
2021/12/16 13:00:51;;;;;;;;;;;9.40;99.90;;;;;;5031007;28;19928;-63
2021/12/16 13:03:21;;;;;;;;;;;9.40;99.90;;;;;;5029302;28;19956;-63
2021/12/16 13:06:04;;;;;;;;;;;9.40;99.90;;;;;;5031105;28;20418;-64
2021/12/16 13:08:31;;;;;;;;;;;9.50;99.90;;;;;;5031110;28;19917;-63
2021/12/16 13:10:59;;;;;;;;;;;9.40;99.90;;;;;;5031186;28;19923;-63
2021/12/16 13:16:14;;;;;;;;;;;9.40;99.90;;;;;;5030463;28;20003;-64
2021/12/16 13:24:40;;;;;;;;;;;9.30;99.90;;;;;;5037639;22;19992;-61
2021/12/16 13:27:24;;;;;;;;;;;9.30;99.90;;;;;;5089442;28;20015;-62
2021/12/16 13:30:07;;;;;;;;;;;9.30;99.90;;;;;;5072236;28;20415;-62
2021/12/16 13:32:43;;;;;;;;;;;9.20;99.90;;;;;;5076492;28;19920;-62
2021/12/16 13:35:32;;;;;;;;;;;9.20;99.90;;;;;;5069743;28;19920;-61
2021/12/16 13:37:58;;;;;;;;;;;9.20;99.90;;;;;;5070067;28;19916;-61
2021/12/16 13:40:25;;;;;;;;;;;9.10;99.90;;;;;;5069889;28;20003;-62
2021/12/16 13:42:59;;;;;;;;;;;9.10;99.90;;;;;;5052243;28;19917;-62
2021/12/16 13:45:32;;;;;;;;;;;9.10;99.90;;;;;;5070383;28;19916;-61
2021/12/16 13:48:26;;;;;;;;;;;9.10;99.90;;;;;;5070372;28;20397;-61
2021/12/16 14:00:21;;;;;;;;;;;9.10;99.90;;;;;;5070221;28;19923;-61
2021/12/16 14:02:47;;;;;;;;;;;9.10;99.90;;;;;;5069600;28;19925;-61
2021/12/16 14:07:54;;;;;;;;;;;9.10;99.90;;;;;;5070058;28;19916;-62
2021/12/16 14:10:23;;;;;;;;;;;9.00;99.90;;;;;;5070048;28;20427;-61
2021/12/16 14:14:07;;;;;;;;;;;9.00;99.90;;;;;;5070633;28;19999;-61
2021/12/16 14:34:07;;;;;;;;;;;9.00;99.90;;;;;;5073743;28;20060;-62
2021/12/16 14:36:18;;;;;;;;;;;9.10;99.90;;;;;;5073247;28;20453;-62
2021/12/16 14:38:54;;;;;;;;;;;9.10;99.90;;;;;;5073563;28;19920;-62
2021/12/16 14:44:19;;;;;;;;;;;9.00;99.90;;;;;;5073405;28;19917;-61
2021/12/16 14:47:00;;;;;;;;;;;9.00;99.90;;;;;;5073786;28;19916;-62
2021/12/16 14:49:27;;;;;;;;;;;9.00;99.90;;;;;;5055810;28;19920;-61
2021/12/16 14:51:57;;;;;;;;;;;9.00;99.90;;;;;;5073189;28;19916;-61
2021/12/16 14:54:23;;;;;;;;;;;9.00;99.90;;;;;;5073122;28;19916;-61
2021/12/16 14:56:49;;;;;;;;;;;9.00;99.90;;;;;;5073371;28;19916;-61
2021/12/16 14:59:15;;;;;;;;;;;9.00;99.90;;;;;;5073518;28;19923;-61
2021/12/16 15:01:42;;;;;;;;;;;9.00;99.90;;;;;;5073269;28;19916;-66
2021/12/16 15:04:10;;;;;;;;;;;8.90;99.90;;;;;;5073107;28;19923;-62
2021/12/16 15:06:47;;;;;;;;;;;8.90;99.90;;;;;;5055251;28;20382;-62
2021/12/16 15:09:23;;;;;;;;;;;8.90;99.90;;;;;;5072823;28;19916;-62
2021/12/16 15:11:59;;;;;;;;;;;8.90;99.90;;;;;;5073059;28;19916;-62
2021/12/16 15:15:01;;;;;;;;;;;8.90;99.90;;;;;;5072574;28;19923;-62
2021/12/16 15:31:49;;;;;;;;;;;8.90;99.90;;;;;;5072831;28;19927;-62
2021/12/16 15:37:11;;;;;;;;;;;8.70;99.90;;;;;;5072049;28;19956;-62
2021/12/16 15:39:50;;;;;;;;;;;8.60;99.90;;;;;;5054154;28;19920;-62
2021/12/16 15:45:04;;;;;;;;;;;8.50;99.90;;;;;;5071678;28;19970;-62
2021/12/16 15:47:30;;;;;;;;;;;8.50;99.90;;;;;;5072763;28;19923;-62
2021/12/16 15:49:56;;;;;;;;;;;8.50;99.90;;;;;;5054166;28;19920;-62
2021/12/16 15:52:22;;;;;;;;;;;8.40;99.90;;;;;;5051906;28;19920;-62
2021/12/16 15:54:51;;;;;;;;;;;8.40;99.90;;;;;;5050962;28;19947;-62
2021/12/16 15:57:17;;;;;;;;;;;8.30;99.90;;;;;;5069812;28;19916;-61
2021/12/16 15:59:50;;;;;;;;;;;8.20;99.90;;;;;;5070067;28;19916;-61
2021/12/16 16:02:17;;;;;;;;;;;8.20;99.90;;;;;;5069722;28;20716;-61
2021/12/16 16:04:43;;;;;;;;;;;8.10;99.90;;;;;;5069891;28;19916;-62
2021/12/16 16:07:10;;;;;;;;;;;8.10;99.90;;;;;;5069234;28;19920;-61
2021/12/16 16:09:37;;;;;;;;;;;8.10;99.90;;;;;;5068928;28;19925;-62
2021/12/16 16:12:03;;;;;;;;;;;8.10;99.90;;;;;;5051058;28;19924;-61
2021/12/16 16:14:32;;;;;;;;;;;8.10;99.90;;;;;;5069134;28;19921;-62
2021/12/16 16:17:00;;;;;;;;;;;8.10;99.90;;;;;;5051183;28;19943;-62
2021/12/16 16:19:28;;;;;;;;;;;8.10;99.90;;;;;;5051901;28;19920;-61
2021/12/16 16:21:54;;;;;;;;;;;8.10;99.90;;;;;;5069311;28;19942;-62
2021/12/16 16:24:27;;;;;;;;;;;8.10;99.90;;;;;;5069022;28;19920;-62
2021/12/16 16:26:54;;;;;;;;;;;8.10;99.90;;;;;;5069142;28;20517;-62
2021/12/16 16:29:21;;;;;;;;;;;8.10;99.90;;;;;;5069121;28;19991;-62
2021/12/16 16:31:48;;;;;;;;;;;8.00;99.90;;;;;;5069578;28;19970;-62
2021/12/16 16:34:19;;;;;;;;;;;8.00;99.90;;;;;;5068884;28;19943;-61
2021/12/16 16:36:46;;;;;;;;;;;8.00;99.90;;;;;;5051627;28;19932;-62
2021/12/16 16:39:13;;;;;;;;;;;8.00;99.90;;;;;;5069691;28;19918;-61
2021/12/16 16:41:42;;;;;;;;;;;8.00;99.90;;;;;;5069152;28;19977;-61
2021/12/16 16:44:13;;;;;;;;;;;8.10;99.90;;;;;;5068440;28;20069;-61
2021/12/16 16:46:46;;;;;;;;;;;8.10;99.90;;;;;;5068590;28;20402;-61
2021/12/16 16:49:23;;;;;;;;;;;8.10;99.90;;;;;;5068361;28;19923;-61
2021/12/16 16:51:49;;;;;;;;;;;8.10;99.90;;;;;;5051388;28;19916;-61
2021/12/16 16:54:27;;;;;;;;;;;8.10;99.90;;;;;;5069952;28;19969;-61
2021/12/16 16:57:12;;;;;;;;;;;8.10;99.90;;;;;;5070247;28;19961;-62
2021/12/16 16:59:47;;;;;;;;;;;8.20;99.90;;;;;;5070892;28;20441;-62
2021/12/16 17:02:15;;;;;;;;;;;8.20;99.90;;;;;;5053041;28;19924;-61
2021/12/16 17:04:41;;;;;;;;;;;8.20;99.90;;;;;;5070859;28;19923;-62
2021/12/16 17:07:06;;;;;;;;;;;8.20;99.90;;;;;;5070877;28;19920;-61
2021/12/16 17:09:34;;;;;;;;;;;8.30;99.90;;;;;;5070271;28;19916;-61
2021/12/16 17:12:02;;;;;;;;;;;8.20;99.90;;;;;;5069787;28;19916;-62
2021/12/16 17:14:40;;;;;;;;;;;8.30;99.90;;;;;;5070446;28;19916;-62
2021/12/16 17:17:23;;;;;;;;;;;8.30;99.90;;;;;;5070836;28;19916;-61
2021/12/16 17:20:06;;;;;;;;;;;8.30;99.90;;;;;;5070781;28;19917;-61
2021/12/16 17:22:40;;;;;;;;;;;8.30;99.90;;;;;;5068341;28;20007;-61
2021/12/16 17:25:07;;;;;;;;;;;8.40;99.90;;;;;;5067927;28;19916;-62
2021/12/16 17:27:36;;;;;;;;;;;8.40;99.90;;;;;;5052383;28;19916;-62
2021/12/16 17:30:04;;;;;;;;;;;8.40;99.90;;;;;;5052022;28;19916;-62
2021/12/16 17:32:31;;;;;;;;;;;8.40;99.90;;;;;;5069805;28;20305;-62
2021/12/16 17:35:35;;;;;;;;;;;8.40;99.90;;;;;;5070193;28;20451;-62
2021/12/16 17:38:20;;;;;;;;;;;8.40;99.90;;;;;;4960562;28;19917;-62
2021/12/16 17:40:48;;;;;;;;;;;8.50;99.90;;;;;;4979400;28;20507;-62
2021/12/16 17:43:16;;;;;;;;;;;8.50;99.90;;;;;;5034232;28;19923;-62
2021/12/16 17:45:45;;;;;;;;;;;8.50;99.90;;;;;;5070149;28;19945;-62
2021/12/16 17:48:12;;;;;;;;;;;8.50;99.90;;;;;;5069707;28;19917;-62
2021/12/16 17:50:39;;;;;;;;;;;8.50;99.90;;;;;;5069742;28;20301;-62
2021/12/16 17:53:06;;;;;;;;;;;8.50;99.90;;;;;;5050275;28;19916;-62
2021/12/16 17:55:37;;;;;;;;;;;8.50;99.90;;;;;;5049246;28;19920;-62
2021/12/16 17:58:09;;;;;;;;;;;8.50;99.90;;;;;;5032524;28;20401;-62
2021/12/16 18:00:41;;;;;;;;;;;8.50;99.90;;;;;;5050112;28;20390;-62